Aviation Digital Data Service (ADDS)

Output produced by METARs form (2324 UTC 31 July 2015)
found at http://aviationweather.gov/adds/metars/
 
KDET 312321Z 0100/0124 28012G20KT P6SM FEW070 
     FM010100 27006KT P6SM SKC 
     FM011600 27013G20KT P6SM SCT060